Ste Anne De Bell 1

CWVQ · Quebec, 加拿大

使用的METAR站距离机场49 NM。
罗盘
风向 的 风向 210°
风: 12 kt, 4 beaufort

添加一条跑道以查看侧风和逆风信息。

添置 跑道
0 ft 2.000 4.000 6.000 8.000 10.000
Cloud Cloud Cloud Cloud
SCT 3.800
Cloud Cloud Cloud Cloud Cloud Cloud
BKN 4.600
Cloud Cloud Cloud Cloud Cloud Cloud
BKN 7.000
METAR KMSS 240153Z AUTO 21012KT 10SM SCT038 BKN046 BKN070 23/18 A2936 RMK AO2 SLP940 T02330183

METAR Ste Anne De Bell 1 - CWVQ

Ste Anne De Bell 1是,加拿大中的未知。 该机场位于纬度45,43333和经度-73,93333。 本场的ICAO机场代码为CWVQ。 机场在Boston FIR中。

该航空气象观测是针对Massena International-Richards Field在2024年6月23日 21:53, 当地时间进行的。

机场观察

风向为210°,速度为12 kt。

可见度为10 mi。

有疏云,零星散落的云朵在3.800 ft的高度, 碎云在4.600 ft的高度 和 碎云在7.000 ft的高度。 破损或更高的上限为4.600 ft。

温度和风寒是23 °C。 露点为18 °C,相对湿度为74%。 海平面上的气压为29,36 inHg (QNH)。

白天

今天,太阳从05:08升起,在20:48降落。 这适用于Ste Anne De Bell 1,世界夏令时可能有所不同。 当地时间与世界标准时间之间的时差为-4 小时。 夏令时目前正在进行中。

公司介绍

我们没有关于这个机场的公司信息。

体会

到Vliegles.nl去找飞行课程,跳伞和其他飞行体验。 浏览页面,了解Ste Anne De Bell 1附近所有可用的活动。 你也可以使用搜索功能来寻找你所在地附近的特定飞行课程、跳伞或其他飞行体验。

乌云

3.800 ft SCT 疏云,零星散落的云朵
4.600 ft BKN 碎云
7.000 ft BKN 碎云

温度 & 天气

温度 23,3 °C
露点 18,3 °C
相对湿度 74%
Kp-index 2 (0-9)

评论

AO2自动气象站,可确定降水类型
SLP940海平面压力为29,35 inHg (29,35 inHg)
T02330183温度为23,3 °C (73,9 °F),露点为18,3 °C (64,9 °F)

白天

日出
05:13 (6:35)
中午
13:01
日落
20:50

小工具

你想在你的网站上有一个关于Ste Anne De Bell 1的当前航空天气(METAR)的小部件吗?

显示HTML代码
报告变更